Latest Weather Observations for Forrest

IDW60801

Issued at 4:32 am WST Saturday 5 September 2015 (issued every 30 minutes, with the page automatically refreshed every 10 minutes)

About weather observations | Map of weather stations | Latest weather observations for WA | Other Formats
Station Details ID: 011052 Name: FORREST Lat: -30.85 Lon: 128.11 Height: 159.0 m
Data from the previous 72 hours. | See also: Recent months at Forrest
Date/Time
WST
Temp
°C
App
Temp
°C
Dew
Point
Rel
Hum
%
Delta-T
°C
Wind Press
QNH
hPa
Press
MSL
hPa
Rain
since 9 am
mm
Dir
 
Spd
km/h
Gust
km/h
Spd
kts
Gust
kts
05/04:30am 9.9 5.0 3.9 66 2.7 NNE 19 20 10 11 1017.2 - 0.0
05/04:00am 10.2 5.3 4.1 66 2.7 NNE 19 24 10 13 1017.2 - 0.0
05/03:30am 10.5 5.5 4.4 66 2.8 NNE 20 24 11 13 1017.1 - 0.0
05/03:00am 11.1 5.7 4.6 64 3.0 NNE 22 30 12 16 1017.2 1017.2 0.0
05/02:30am 11.3 5.9 4.7 64 3.0 NE 22 28 12 15 1017.5 - 0.0
05/02:00am 11.0 6.0 4.7 65 2.9 NE 20 24 11 13 1018.0 - 0.0
05/01:30am 11.0 5.3 4.9 66 2.8 NNE 24 28 13 15 1018.6 - 0.0
05/01:00am 10.1 5.2 4.9 70 2.4 NNE 20 22 11 12 1019.1 - 0.0
05/12:30am 9.9 5.5 4.7 70 2.3 NNE 17 20 9 11 1019.6 - 0.0
05/12:00am 9.3 6.0 4.3 71 2.2 NNE 11 13 6 7 1019.9 1019.8 0.0
 
Date/Time
WST
Temp
°C
App
Temp
°C
Dew
Point
Rel
Hum
%
Delta-T
°C
Wind Press
QNH
hPa
Press
MSL
hPa
Rain
since 9 am
mm
Dir
 
Spd
km/h
Gust
km/h
Spd
kts
Gust
kts
04/11:30pm 10.2 6.9 4.6 68 2.5 NNE 11 13 6 7 1020.3 - 0.0
04/11:00pm 11.0 7.3 4.5 64 3.0 NNE 13 15 7 8 1020.4 - 0.0
04/10:30pm 12.3 7.5 4.5 59 3.6 NE 19 20 10 11 1020.5 - 0.0
04/10:00pm 12.1 7.1 4.6 60 3.4 NE 20 22 11 12 1020.7 - 0.0
04/09:30pm 11.2 6.8 4.7 64 3.0 NE 17 20 9 11 1021.2 - 0.0
04/09:00pm 11.2 6.7 4.2 62 3.1 ENE 17 19 9 10 1021.4 1021.3 0.0
04/08:30pm 11.6 7.9 4.3 61 3.3 ENE 13 17 7 9 1021.8 - 0.0
04/08:00pm 12.3 8.6 4.3 58 3.7 ENE 13 15 7 8 1021.6 - 0.0
04/07:30pm 13.5 9.8 4.4 54 4.2 ENE 13 15 7 8 1021.5 - 0.0
04/07:00pm 14.1 9.9 3.8 50 4.7 E 15 17 8 9 1021.3 - 0.0
04/06:30pm 14.8 9.9 3.9 48 5.0 E 19 19 10 10 1021.1 - 0.0
04/06:00pm 15.6 11.7 3.4 44 5.6 ENE 13 15 7 8 1021.0 1020.9 0.0
04/05:30pm 17.6 14.4 3.1 38 6.7 NE 9 13 5 7 1020.9 - 0.0
04/05:00pm 19.9 17.0 2.7 32 8.1 N 7 9 4 5 1020.6 - 0.0
04/04:30pm 21.0 17.7 2.3 29 8.8 NW 9 15 5 8 1020.6 - 0.0
04/04:02pm 21.3 17.7 3.0 30 8.7 E 11 106 6 57 1020.6 - 0.0
04/04:00pm 21.2 8.9 3.0 30 8.7 ENE 57 106 31 57 1020.6 - 0.0
04/03:59pm 21.1 8.4 2.9 30 8.7 NE 59 106 32 57 1020.7 - 0.0
04/03:30pm 21.2 18.0 3.0 30 8.7 NNW 9 20 5 11 1020.7 - 0.0
04/03:00pm 21.1 16.7 2.9 30 8.6 N 15 20 8 11 1020.9 1020.8 0.0
04/02:30pm 21.3 17.8 3.5 31 8.6 NNE 11 20 6 11 1021.2 - 0.0
04/02:00pm 21.1 17.3 3.8 32 8.4 NNE 13 106 7 57 1021.3 - 0.0
04/01:30pm 21.3 17.5 4.0 32 8.4 NNE 13 20 7 11 1021.6 - 0.0
04/01:00pm 20.6 17.1 5.4 37 7.6 N 13 22 7 12 1022.0 - 0.0
04/12:34pm 20.8 18.0 5.2 36 7.7 NNW 9 106 5 57 1022.3 - 0.0
04/12:33pm 20.4 11.1 4.8 36 7.7 W 43 106 23 57 1022.3 - 0.0
04/12:31pm 20.2 5.9 4.7 36 7.6 SSE 69 106 37 57 1022.4 - 0.0
04/12:30pm 20.4 16.7 4.4 35 7.8 S 13 106 7 57 1022.4 - 0.0
04/12:28pm 20.4 17.9 4.8 36 7.7 SSW 7 106 4 57 1022.4 - 0.0
04/12:26pm 20.3 8.2 4.4 35 7.7 NE 57 106 31 57 1022.4 - 0.0
04/12:25pm 20.3 13.0 4.4 35 7.7 N 32 106 17 57 1022.4 - 0.0
04/12:00pm 20.2 16.8 5.8 39 7.2 NNE 13 20 7 11 1023.1 1023.1 0.0
04/11:30am 19.1 14.6 6.2 43 6.5 NNE 19 28 10 15 1023.7 - 0.0
04/11:00am 18.8 14.3 6.3 44 6.3 NNE 19 24 10 13 1024.3 - 0.0
04/10:30am 18.6 14.2 6.4 45 6.1 NNE 19 28 10 15 1024.7 - 0.0
04/10:00am 17.7 13.3 7.4 51 5.2 NNE 20 26 11 14 1025.3 - 0.0
04/09:30am 17.6 13.1 8.7 56 4.6 NNE 22 28 12 15 1025.7 - 0.0
04/09:00am 15.6 11.4 8.4 62 3.7 NE 20 30 11 16 1025.9 1025.8 0.0
04/08:30am 14.1 10.0 8.5 69 2.8 NNE 20 28 11 15 1026.1 - 0.0
04/08:00am 12.2 8.0 8.1 76 2.0 NNE 20 24 11 13 1026.2 - 0.0
04/07:30am 9.9 5.5 7.2 83 1.3 NE 20 24 11 13 1026.4 - 0.0
04/07:00am 7.5 4.3 6.8 95 0.3 NE 13 19 7 10 1026.2 - 0.0
04/06:30am 5.5 2.7 5.1 97 0.2 ENE 9 11 5 6 1026.2 - 0.0
04/06:00am 4.1 1.0 3.7 97 0.2 ENE 9 11 5 6 1025.9 1025.8 0.0
04/05:30am 4.2 0.8 3.8 97 0.2 NE 11 11 6 6 1025.9 - 0.0
04/05:00am 4.5 1.5 4.1 97 0.2 NE 9 11 5 6 1025.9 - 0.0
04/04:30am 5.0 1.7 4.4 96 0.3 ENE 11 15 6 8 1025.7 - 0.0
04/04:00am 5.5 1.9 4.9 96 0.3 ENE 13 15 7 8 1025.7 - 0.0
04/03:30am 5.7 2.1 5.1 96 0.3 ENE 13 15 7 8 1025.5 - 0.0
04/03:00am 5.9 2.3 5.2 95 0.3 E 13 15 7 8 1025.5 1025.4 0.0
04/02:30am 6.3 3.2 5.4 94 0.4 ENE 11 13 6 7 1025.8 - 0.0
04/02:00am 6.6 3.2 5.7 94 0.4 E 13 15 7 8 1025.8 - 0.0
04/01:30am 6.8 3.4 5.7 93 0.5 E 13 17 7 9 1026.0 - 0.0
04/01:00am 7.0 3.6 5.8 92 0.5 E 13 17 7 9 1026.2 - 0.0
04/12:30am 7.5 4.1 6.0 90 0.7 E 13 17 7 9 1026.5 - 0.0
04/12:00am 8.1 4.0 6.4 89 0.8 E 17 20 9 11 1026.7 1026.6 0.0
 
Date/Time
WST
Temp
°C
App
Temp
°C
Dew
Point
Rel
Hum
%
Delta-T
°C
Wind Press
QNH
hPa
Press
MSL
hPa
Rain
since 9 am
mm
Dir
 
Spd
km/h
Gust
km/h
Spd
kts
Gust
kts
03/11:30pm 8.0 3.9 6.1 88 0.9 E 17 20 9 11 1027.0 - 0.0
03/11:00pm 8.2 4.5 6.3 88 0.9 E 15 20 8 11 1027.5 - 0.0
03/10:30pm 8.4 5.8 6.0 85 1.1 E 9 11 5 6 1027.8 - 0.0
03/10:00pm 9.1 5.4 6.4 83 1.3 E 15 20 8 11 1027.5 - 0.0
03/09:30pm 9.7 6.8 6.6 81 1.5 E 11 13 6 7 1027.9 - 0.0
03/09:00pm 10.9 7.3 6.8 76 1.9 E 15 19 8 10 1027.7 1027.7 0.0
03/08:30pm 11.4 6.9 6.9 74 2.2 ESE 20 24 11 13 1027.3 - 0.0
03/08:00pm 11.7 8.2 7.0 73 2.3 ESE 15 20 8 11 1027.0 - 0.0
03/07:30pm 12.4 8.2 5.8 64 3.1 ESE 17 20 9 11 1026.6 - 0.0
03/07:00pm 13.5 9.8 6.4 62 3.4 E 15 20 8 11 1026.2 - 0.0
03/06:30pm 13.7 10.0 6.1 60 3.6 E 15 17 8 9 1026.1 - 0.0
03/06:00pm 14.9 11.5 6.0 55 4.3 E 13 15 7 8 1025.9 1025.8 0.0
03/05:30pm 15.8 12.7 5.4 50 5.0 ESE 11 13 6 7 1025.5 - 0.0
03/05:00pm 16.9 13.3 5.2 46 5.6 ESE 13 17 7 9 1025.1 - 0.0
03/04:30pm 18.0 15.2 5.2 43 6.2 E 9 13 5 7 1024.9 - 0.0
03/04:00pm 18.3 14.8 5.5 43 6.3 SE 13 19 7 10 1024.9 - 0.0
03/03:30pm 18.0 14.8 5.2 43 6.2 ESE 11 19 6 10 1025.0 - 0.0
03/03:00pm 18.3 14.7 5.2 42 6.4 SE 13 26 7 14 1024.9 1024.8 0.0
03/02:44pm 18.6 14.0 5.8 43 6.3 ENE 19 107 10 58 1025.0 - 0.0
03/02:42pm 18.2 6.0 5.4 43 6.3 ENE 59 107 32 58 1025.0 - 0.0
03/02:30pm 18.2 14.6 5.1 42 6.4 S 13 17 7 9 1024.9 - 0.0
03/02:00pm 17.1 14.0 5.7 47 5.6 ESE 11 15 6 8 1025.1 - 0.0
03/01:30pm 18.1 15.1 6.0 45 6.0 SSW 11 17 6 9 1025.2 - 0.0
03/01:12pm 17.6 13.9 6.5 48 5.5 E 15 106 8 57 1025.4 - 0.0
03/01:11pm 17.2 2.9 5.8 47 5.6 SSE 70 106 38 57 1025.4 - 0.0
03/01:10pm 17.1 -1.8 6.3 49 5.3 SSE 95 106 51 57 1025.4 - 0.0
03/01:00pm 16.7 14.3 6.8 52 4.9 SSE 9 15 5 8 1025.4 - 0.0
03/12:30pm 17.4 15.2 6.3 48 5.5 N 7 15 4 8 1025.8 - 0.0
03/12:13pm 17.0 15.1 7.4 53 4.8 NNW 7 106 4 57 1026.2 - 0.0
03/12:12pm 16.7 3.2 6.8 52 4.9 ENE 67 106 36 57 1026.2 - 0.0
03/12:11pm 16.6 -2.7 7.0 53 4.8 E 98 106 53 57 1026.2 - 0.0
03/12:07pm 16.8 10.0 6.9 52 4.9 ESE 32 106 17 57 1026.4 - 0.0
03/12:02pm 17.2 -1.5 7.8 54 4.8 E 96 106 52 57 1026.5 - 0.0
03/12:00pm 16.6 14.3 7.5 55 4.6 E 9 17 5 9 1026.5 1026.4 0.0
03/11:30am 15.9 13.3 6.3 53 4.7 ESE 9 80 5 43 1027.0 - 0.0
03/11:00am 16.3 13.4 8.3 59 4.1 ESE 13 20 7 11 1027.4 - 0.0
03/10:30am 14.8 12.7 8.1 64 3.4 E 9 15 5 8 1027.7 - 0.0
03/10:00am 15.4 13.0 8.6 64 3.5 E 11 19 6 10 1028.0 - 0.0
03/09:30am 13.6 10.3 8.0 69 2.8 ESE 15 20 8 11 1028.3 - 0.0
03/09:00am 13.5 10.7 8.6 72 2.5 ESE 13 24 7 13 1028.4 1028.4 0.0
03/08:30am 13.0 9.4 8.3 73 2.4 SE 17 20 9 11 1028.5 - 0.0
03/08:00am 11.3 9.6 9.7 90 0.8 S 9 15 5 8 1028.5 - 0.0
03/07:30am 9.9 8.6 9.8 99 0.1 S 7 11 4 6 1028.3 - 0.0
03/07:00am 8.7 7.3 8.7 100 0.0 S 6 11 3 6 1027.9 - 0.0
03/06:30am 6.7 4.6 6.6 99 0.0 S 7 9 4 5 1027.4 - 0.0
03/06:00am 6.8 4.4 6.8 100 0.0 SSW 9 9 5 5 1027.1 1027.0 0.0
03/05:30am 6.4 3.8 6.3 99 0.0 SSW 9 11 5 6 1026.7 - 0.0
03/05:00am 6.6 3.7 6.5 99 0.0 SSW 11 13 6 7 1026.4 - 0.0
03/04:30am 7.3 4.6 7.2 99 0.0 WSW 11 13 6 7 1026.2 - 0.0
03/04:00am 6.6 3.7 6.5 99 0.0 WSW 11 13 6 7 1026.2 - 0.0
03/03:30am 6.6 3.7 6.5 99 0.0 WSW 11 13 6 7 1025.9 - 0.0
03/03:00am 7.1 3.9 7.0 99 0.0 SW 13 15 7 8 1025.6 1025.5 0.0
03/02:30am 7.0 3.8 6.7 98 0.1 SSW 13 15 7 8 1025.2 - 0.0
03/02:00am 7.5 4.4 7.2 98 0.1 SSW 13 15 7 8 1025.3 - 0.0
03/01:30am 7.9 4.9 7.5 97 0.2 S 13 17 7 9 1025.3 - 0.0
03/01:00am 7.8 4.3 7.2 96 0.3 S 15 17 8 9 1025.4 - 0.0
03/12:30am 8.5 5.5 7.7 95 0.4 S 13 15 7 8 1025.6 - 0.0
03/12:00am 9.2 5.9 8.1 93 0.5 SSW 15 17 8 9 1025.7 1025.6 0.0
 
Date/Time
WST
Temp
°C
App
Temp
°C
Dew
Point
Rel
Hum
%
Delta-T
°C
Wind Press
QNH
hPa
Press
MSL
hPa
Rain
since 9 am
mm
Dir
 
Spd
km/h
Gust
km/h
Spd
kts
Gust
kts
02/11:30pm 9.9 6.7 8.3 90 0.8 SSW 15 17 8 9 1025.9 - 0.0
02/11:00pm 10.9 7.8 9.0 88 1.0 SSW 15 19 8 10 1026.0 - 0.0
02/10:30pm 11.0 7.9 8.9 87 1.0 SSW 15 20 8 11 1026.2 - 0.0
02/10:00pm 10.6 7.5 8.7 88 0.9 SSW 15 19 8 10 1026.2 - 0.0
02/09:30pm 9.8 6.5 8.1 89 0.8 SSW 15 19 8 10 1025.9 - 0.0
02/09:00pm 10.0 6.3 8.1 88 0.9 S 17 20 9 11 1025.8 1025.7 0.0
02/08:30pm 9.7 6.7 7.5 86 1.1 S 13 13 7 7 1025.5 - 0.0
02/08:00pm 10.5 7.1 7.6 82 1.4 S 15 20 8 11 1025.1 - 0.0
02/07:30pm 11.1 7.4 7.8 80 1.6 S 17 24 9 13 1024.6 - 0.0
02/07:00pm 11.8 7.7 7.9 77 1.9 S 19 24 10 13 1024.3 - 0.0
02/06:30pm 12.3 8.6 7.8 74 2.2 S 17 22 9 12 1023.9 - 0.0
02/06:00pm 13.2 9.5 7.9 70 2.6 S 17 24 9 13 1023.4 1023.4 0.0
02/05:30pm 14.2 9.8 7.5 64 3.3 S 20 28 11 15 1022.9 - 0.0
02/05:00pm 15.6 9.9 6.6 55 4.4 S 26 33 14 18 1022.3 - 0.0
02/04:30pm 16.7 11.0 6.5 51 5.0 SSW 26 33 14 18 1022.1 - 0.0
02/04:00pm 16.9 10.7 6.1 49 5.3 SSW 28 35 15 19 1022.0 - 0.0
02/03:30pm 17.8 12.7 6.0 46 5.8 SSW 22 33 12 18 1021.7 - 0.0
02/03:00pm 17.3 10.6 5.6 46 5.7 S 30 43 16 23 1021.4 1021.3 0.0
02/02:30pm 18.4 11.7 5.6 43 6.3 SSW 30 43 16 23 1021.2 - 0.0
02/02:00pm 17.9 10.7 4.8 42 6.3 SSW 32 41 17 22 1021.1 - 0.0
02/01:30pm 17.9 11.2 5.5 44 6.1 SSW 30 43 16 23 1020.9 - 0.0
02/01:00pm 17.7 11.8 7.7 52 5.1 SSW 28 35 15 19 1020.8 - 0.0
02/12:30pm 17.3 9.7 7.6 53 4.9 SSW 37 50 20 27 1021.2 - 0.0
02/12:00pm 17.0 10.2 7.6 54 4.7 SSW 33 44 18 24 1021.3 1021.2 0.0
02/11:30am 14.8 7.4 8.5 66 3.2 SW 37 52 20 28 1021.5 - 0.0
02/11:27am 15.8 9.3 9.0 64 3.5 SW 33 52 18 28 1021.4 - 0.0
02/11:00am 15.4 8.3 7.9 61 3.8 SW 35 52 19 28 1021.6 - 0.0
02/10:30am 14.6 8.8 9.4 71 2.7 SW 30 41 16 22 1022.0 - 0.0
02/10:00am 14.2 7.7 9.0 71 2.7 SW 33 43 18 23 1022.2 - 0.0
02/09:30am 12.9 6.4 9.0 77 2.0 SW 33 43 18 23 1022.2 - 0.0
02/09:00am 12.3 5.8 9.1 81 1.6 WSW 33 43 18 23 1022.1 1022.1 0.2
02/08:30am 11.2 4.7 8.9 86 1.2 WSW 33 44 18 24 1021.8 - 0.2
02/08:00am 10.2 3.7 8.8 91 0.7 WSW 33 43 18 23 1021.4 - 0.2
02/07:30am 8.9 2.4 8.1 95 0.4 WSW 32 44 17 24 1021.0 - 0.2
02/07:00am 8.5 1.7 7.9 96 0.3 W 33 43 18 23 1020.2 - 0.2
02/06:30am 8.2 1.4 7.6 96 0.3 W 33 41 18 22 1019.7 - 0.2
02/06:00am 8.0 1.4 7.6 97 0.2 W 32 41 17 22 1019.4 1019.3 0.2
02/05:30am 7.9 1.0 7.3 96 0.3 W 33 43 18 23 1018.9 - 0.2
02/05:00am 7.6 0.8 6.9 95 0.3 W 32 39 17 21 1018.4 - 0.2

Other Formats:

Comma delimited format used in spreadsheet applications
http://www.bom.gov.au/fwo/IDW60801/IDW60801.95646.axf

JavaScript Object Notation format (JSON) in row-major order
http://www.bom.gov.au/fwo/IDW60801/IDW60801.95646.json